sensor_id;sensor_type;location;lat;lon;timestamp;pressure;altitude;pressure_sealevel;temperature;humidity
4346;BME280;2186;49.866;7.986;2022-12-18T00:02:11;101639.34;;;-5.04;100.00
4346;BME280;2186;49.866;7.986;2022-12-18T00:04:38;101633.63;;;-5.13;100.00
4346;BME280;2186;49.866;7.986;2022-12-18T00:07:04;101648.03;;;-5.18;100.00
4346;BME280;2186;49.866;7.986;2022-12-18T00:09:31;101649.16;;;-5.59;100.00
4346;BME280;2186;49.866;7.986;2022-12-18T00:12:05;101647.38;;;-5.60;100.00
4346;BME280;2186;49.866;7.986;2022-12-18T00:14:43;101653.44;;;-5.59;100.00
4346;BME280;2186;49.866;7.986;2022-12-18T00:17:10;101658.66;;;-5.14;100.00
4346;BME280;2186;49.866;7.986;2022-12-18T00:19:36;101653.44;;;-5.45;100.00
4346;BME280;2186;49.866;7.986;2022-12-18T00:22:03;101648.59;;;-5.53;100.00
4346;BME280;2186;49.866;7.986;2022-12-18T00:24:29;101645.84;;;-5.42;100.00
4346;BME280;2186;49.866;7.986;2022-12-18T00:26:55;101650.28;;;-5.39;100.00
4346;BME280;2186;49.866;7.986;2022-12-18T00:29:22;101655.03;;;-5.32;100.00
4346;BME280;2186;49.866;7.986;2022-12-18T00:31:48;101663.50;;;-5.20;100.00
4346;BME280;2186;49.866;7.986;2022-12-18T00:34:15;101653.75;;;-4.78;100.00
4346;BME280;2186;49.866;7.986;2022-12-18T00:36:42;101655.63;;;-5.07;100.00
4346;BME280;2186;49.866;7.986;2022-12-18T00:39:10;101663.75;;;-5.15;100.00
4346;BME280;2186;49.866;7.986;2022-12-18T00:41:36;101659.59;;;-4.97;100.00
4346;BME280;2186;49.866;7.986;2022-12-18T00:44:22;101652.78;;;-4.64;100.00
4346;BME280;2186;49.866;7.986;2022-12-18T00:46:48;101642.97;;;-4.69;100.00
4346;BME280;2186;49.866;7.986;2022-12-18T00:49:16;101635.84;;;-5.04;100.00
4346;BME280;2186;49.866;7.986;2022-12-18T00:51:45;101642.25;;;-4.98;100.00
4346;BME280;2186;49.866;7.986;2022-12-18T00:54:11;101655.06;;;-5.01;100.00
4346;BME280;2186;49.866;7.986;2022-12-18T00:56:38;101663.03;;;-5.13;100.00
4346;BME280;2186;49.866;7.986;2022-12-18T00:59:14;101656.22;;;-5.11;100.00
4346;BME280;2186;49.866;7.986;2022-12-18T01:01:40;101644.88;;;-5.13;100.00
4346;BME280;2186;49.866;7.986;2022-12-18T01:04:07;101653.72;;;-5.09;100.00
4346;BME280;2186;49.866;7.986;2022-12-18T01:06:33;101658.09;;;-5.08;100.00
4346;BME280;2186;49.866;7.986;2022-12-18T01:09:01;101657.56;;;-5.02;100.00
4346;BME280;2186;49.866;7.986;2022-12-18T01:11:28;101644.94;;;-4.96;100.00
4346;BME280;2186;49.866;7.986;2022-12-18T01:13:54;101637.88;;;-4.99;100.00
4346;BME280;2186;49.866;7.986;2022-12-18T01:16:22;101644.16;;;-5.10;100.00
4346;BME280;2186;49.866;7.986;2022-12-18T01:18:51;101642.78;;;-5.20;100.00
4346;BME280;2186;49.866;7.986;2022-12-18T01:21:20;101654.94;;;-5.19;100.00
4346;BME280;2186;49.866;7.986;2022-12-18T01:23:51;101661.38;;;-5.42;100.00
4346;BME280;2186;49.866;7.986;2022-12-18T01:26:18;101664.78;;;-5.72;100.00
4346;BME280;2186;49.866;7.986;2022-12-18T01:28:44;101668.25;;;-5.72;100.00
4346;BME280;2186;49.866;7.986;2022-12-18T01:31:19;101671.09;;;-6.11;100.00
4346;BME280;2186;49.866;7.986;2022-12-18T01:33:51;101680.19;;;-6.03;100.00
4346;BME280;2186;49.866;7.986;2022-12-18T01:36:26;101677.09;;;-5.98;100.00
4346;BME280;2186;49.866;7.986;2022-12-18T01:38:53;101683.06;;;-5.99;100.00
4346;BME280;2186;49.866;7.986;2022-12-18T01:41:25;101680.47;;;-6.13;100.00
4346;BME280;2186;49.866;7.986;2022-12-18T01:43:55;101687.75;;;-6.21;100.00
4346;BME280;2186;49.866;7.986;2022-12-18T01:46:26;101675.88;;;-6.17;100.00
4346;BME280;2186;49.866;7.986;2022-12-18T01:48:57;101674.19;;;-6.17;100.00
4346;BME280;2186;49.866;7.986;2022-12-18T01:51:24;101668.19;;;-6.03;100.00
4346;BME280;2186;49.866;7.986;2022-12-18T01:53:51;101682.91;;;-5.72;100.00
4346;BME280;2186;49.866;7.986;2022-12-18T01:56:19;101690.38;;;-5.77;100.00
4346;BME280;2186;49.866;7.986;2022-12-18T01:58:59;101692.88;;;-5.63;100.00
4346;BME280;2186;49.866;7.986;2022-12-18T02:01:28;101679.75;;;-5.67;100.00
4346;BME280;2186;49.866;7.986;2022-12-18T02:03:56;101669.31;;;-5.53;100.00
4346;BME280;2186;49.866;7.986;2022-12-18T02:06:41;101680.47;;;-5.69;100.00
4346;BME280;2186;49.866;7.986;2022-12-18T02:09:19;101691.19;;;-5.92;100.00
4346;BME280;2186;49.866;7.986;2022-12-18T02:11:54;101682.44;;;-5.65;100.00
4346;BME280;2186;49.866;7.986;2022-12-18T02:14:40;101684.38;;;-5.76;100.00
4346;BME280;2186;49.866;7.986;2022-12-18T02:17:18;101673.88;;;-5.49;100.00
4346;BME280;2186;49.866;7.986;2022-12-18T02:20:04;101668.41;;;-5.83;100.00
4346;BME280;2186;49.866;7.986;2022-12-18T02:28:29;101672.44;;;-6.31;100.00
4346;BME280;2186;49.866;7.986;2022-12-18T02:30:59;101664.25;;;-6.39;100.00
4346;BME280;2186;49.866;7.986;2022-12-18T02:33:29;101667.19;;;-6.33;100.00
4346;BME280;2186;49.866;7.986;2022-12-18T02:35:58;101656.63;;;-6.50;100.00
4346;BME280;2186;49.866;7.986;2022-12-18T02:38:26;101660.09;;;-6.22;100.00
4346;BME280;2186;49.866;7.986;2022-12-18T02:40:54;101657.91;;;-6.01;100.00
4346;BME280;2186;49.866;7.986;2022-12-18T02:43:21;101661.75;;;-5.94;100.00
4346;BME280;2186;49.866;7.986;2022-12-18T02:45:53;101651.84;;;-6.02;100.00
4346;BME280;2186;49.866;7.986;2022-12-18T02:48:28;101654.03;;;-5.78;100.00
4346;BME280;2186;49.866;7.986;2022-12-18T02:51:45;101649.16;;;-5.74;100.00
4346;BME280;2186;49.866;7.986;2022-12-18T02:54:14;101648.34;;;-5.73;100.00
4346;BME280;2186;49.866;7.986;2022-12-18T02:56:54;101639.94;;;-5.54;100.00
4346;BME280;2186;49.866;7.986;2022-12-18T02:59:30;101643.09;;;-5.59;100.00
4346;BME280;2186;49.866;7.986;2022-12-18T03:02:17;101645.22;;;-5.82;100.00
4346;BME280;2186;49.866;7.986;2022-12-18T03:07:40;101648.53;;;-5.55;100.00
4346;BME280;2186;49.866;7.986;2022-12-18T03:10:12;101644.97;;;-5.72;100.00
4346;BME280;2186;49.866;7.986;2022-12-18T03:12:47;101645.88;;;-6.01;100.00
4346;BME280;2186;49.866;7.986;2022-12-18T03:15:22;101653.06;;;-5.80;100.00
4346;BME280;2186;49.866;7.986;2022-12-18T03:17:56;101651.22;;;-5.98;100.00
4346;BME280;2186;49.866;7.986;2022-12-18T03:20:27;101647.47;;;-6.03;100.00
4346;BME280;2186;49.866;7.986;2022-12-18T03:23:00;101650.59;;;-5.93;100.00
4346;BME280;2186;49.866;7.986;2022-12-18T03:25:30;101646.38;;;-6.06;100.00
4346;BME280;2186;49.866;7.986;2022-12-18T03:28:01;101655.59;;;-5.97;100.00
4346;BME280;2186;49.866;7.986;2022-12-18T03:30:30;101648.78;;;-6.09;100.00
4346;BME280;2186;49.866;7.986;2022-12-18T03:33:07;101651.34;;;-6.24;100.00
4346;BME280;2186;49.866;7.986;2022-12-18T03:35:39;101653.44;;;-6.60;100.00
4346;BME280;2186;49.866;7.986;2022-12-18T03:38:06;101645.25;;;-6.39;100.00
4346;BME280;2186;49.866;7.986;2022-12-18T03:43:30;101655.94;;;-6.33;100.00
4346;BME280;2186;49.866;7.986;2022-12-18T03:46:08;101654.09;;;-6.21;100.00
4346;BME280;2186;49.866;7.986;2022-12-18T03:48:41;101659.25;;;-6.36;100.00
4346;BME280;2186;49.866;7.986;2022-12-18T03:51:41;101658.19;;;-6.80;100.00
4346;BME280;2186;49.866;7.986;2022-12-18T03:54:10;101666.56;;;-6.98;100.00
4346;BME280;2186;49.866;7.986;2022-12-18T03:56:41;101657.53;;;-7.18;100.00
4346;BME280;2186;49.866;7.986;2022-12-18T03:59:09;101654.56;;;-7.50;100.00
4346;BME280;2186;49.866;7.986;2022-12-18T04:01:41;101653.84;;;-7.08;100.00
4346;BME280;2186;49.866;7.986;2022-12-18T04:04:10;101643.66;;;-6.78;100.00
4346;BME280;2186;49.866;7.986;2022-12-18T04:06:38;101637.13;;;-6.87;100.00
4346;BME280;2186;49.866;7.986;2022-12-18T04:09:06;101645.41;;;-7.05;100.00
4346;BME280;2186;49.866;7.986;2022-12-18T04:11:33;101640.34;;;-7.17;100.00
4346;BME280;2186;49.866;7.986;2022-12-18T04:13:59;101642.75;;;-7.20;100.00
4346;BME280;2186;49.866;7.986;2022-12-18T04:16:31;101638.09;;;-7.39;100.00
4346;BME280;2186;49.866;7.986;2022-12-18T04:18:57;101638.38;;;-7.48;100.00
4346;BME280;2186;49.866;7.986;2022-12-18T04:21:24;101636.31;;;-7.53;100.00
4346;BME280;2186;49.866;7.986;2022-12-18T04:23:50;101640.06;;;-7.35;100.00
4346;BME280;2186;49.866;7.986;2022-12-18T04:26:16;101645.59;;;-7.42;100.00
4346;BME280;2186;49.866;7.986;2022-12-18T04:28:43;101641.94;;;-7.32;100.00
4346;BME280;2186;49.866;7.986;2022-12-18T04:31:09;101648.69;;;-7.48;100.00
4346;BME280;2186;49.866;7.986;2022-12-18T04:33:36;101645.72;;;-7.54;100.00
4346;BME280;2186;49.866;7.986;2022-12-18T04:36:03;101640.06;;;-7.61;100.00
4346;BME280;2186;49.866;7.986;2022-12-18T04:38:30;101645.13;;;-7.63;100.00
4346;BME280;2186;49.866;7.986;2022-12-18T04:40:57;101648.38;;;-7.79;100.00
4346;BME280;2186;49.866;7.986;2022-12-18T04:43:23;101654.31;;;-7.93;100.00
4346;BME280;2186;49.866;7.986;2022-12-18T04:45:49;101647.94;;;-7.85;99.99
4346;BME280;2186;49.866;7.986;2022-12-18T04:48:16;101654.59;;;-7.88;100.00
4346;BME280;2186;49.866;7.986;2022-12-18T04:50:42;101649.44;;;-7.88;100.00
4346;BME280;2186;49.866;7.986;2022-12-18T04:53:09;101660.94;;;-7.83;100.00
4346;BME280;2186;49.866;7.986;2022-12-18T04:55:35;101672.03;;;-7.97;100.00
4346;BME280;2186;49.866;7.986;2022-12-18T04:58:02;101672.53;;;-8.03;100.00
4346;BME280;2186;49.866;7.986;2022-12-18T05:00:28;101670.13;;;-8.00;100.00
4346;BME280;2186;49.866;7.986;2022-12-18T05:02:55;101676.00;;;-8.02;100.00
4346;BME280;2186;49.866;7.986;2022-12-18T05:05:21;101672.47;;;-7.91;100.00
4346;BME280;2186;49.866;7.986;2022-12-18T05:07:48;101668.59;;;-7.85;100.00
4346;BME280;2186;49.866;7.986;2022-12-18T05:10:14;101660.75;;;-7.86;100.00
4346;BME280;2186;49.866;7.986;2022-12-18T05:12:41;101662.97;;;-7.79;100.00
4346;BME280;2186;49.866;7.986;2022-12-18T05:15:30;101650.19;;;-7.64;100.00
4346;BME280;2186;49.866;7.986;2022-12-18T05:17:58;101651.75;;;-7.80;100.00
4346;BME280;2186;49.866;7.986;2022-12-18T05:20:26;101650.28;;;-7.63;100.00
4346;BME280;2186;49.866;7.986;2022-12-18T05:22:53;101650.38;;;-7.48;100.00
4346;BME280;2186;49.866;7.986;2022-12-18T05:25:20;101654.47;;;-7.12;100.00
4346;BME280;2186;49.866;7.986;2022-12-18T05:27:47;101655.13;;;-7.14;100.00
4346;BME280;2186;49.866;7.986;2022-12-18T05:30:14;101654.94;;;-7.18;100.00
4346;BME280;2186;49.866;7.986;2022-12-18T05:32:41;101642.63;;;-7.08;100.00
4346;BME280;2186;49.866;7.986;2022-12-18T05:35:09;101645.03;;;-6.57;100.00
4346;BME280;2186;49.866;7.986;2022-12-18T05:37:36;101643.69;;;-6.92;100.00
4346;BME280;2186;49.866;7.986;2022-12-18T05:40:09;101653.22;;;-6.91;100.00
4346;BME280;2186;49.866;7.986;2022-12-18T05:42:36;101656.81;;;-7.02;100.00
4346;BME280;2186;49.866;7.986;2022-12-18T05:45:02;101647.09;;;-7.06;100.00
4346;BME280;2186;49.866;7.986;2022-12-18T05:47:29;101651.75;;;-7.13;100.00
4346;BME280;2186;49.866;7.986;2022-12-18T05:49:56;101653.69;;;-7.24;100.00
4346;BME280;2186;49.866;7.986;2022-12-18T05:52:22;101653.16;;;-7.05;100.00
4346;BME280;2186;49.866;7.986;2022-12-18T05:54:49;101663.22;;;-7.10;100.00
4346;BME280;2186;49.866;7.986;2022-12-18T05:57:15;101661.97;;;-7.02;100.00
4346;BME280;2186;49.866;7.986;2022-12-18T05:59:42;101664.19;;;-7.21;100.00
4346;BME280;2186;49.866;7.986;2022-12-18T06:02:08;101664.38;;;-7.31;100.00
4346;BME280;2186;49.866;7.986;2022-12-18T06:04:35;101677.50;;;-7.15;100.00
4346;BME280;2186;49.866;7.986;2022-12-18T06:07:04;101664.59;;;-7.28;100.00
4346;BME280;2186;49.866;7.986;2022-12-18T06:09:31;101670.34;;;-7.46;100.00
4346;BME280;2186;49.866;7.986;2022-12-18T06:11:58;101666.38;;;-7.40;100.00
4346;BME280;2186;49.866;7.986;2022-12-18T06:14:25;101676.91;;;-7.37;100.00
4346;BME280;2186;49.866;7.986;2022-12-18T06:16:51;101675.81;;;-7.28;100.00
4346;BME280;2186;49.866;7.986;2022-12-18T06:19:18;101680.50;;;-7.35;100.00
4346;BME280;2186;49.866;7.986;2022-12-18T06:21:44;101689.72;;;-7.52;100.00
4346;BME280;2186;49.866;7.986;2022-12-18T06:24:11;101680.28;;;-7.52;100.00
4346;BME280;2186;49.866;7.986;2022-12-18T06:26:38;101692.41;;;-7.51;100.00
4346;BME280;2186;49.866;7.986;2022-12-18T06:29:05;101698.16;;;-7.28;100.00
4346;BME280;2186;49.866;7.986;2022-12-18T06:31:31;101699.63;;;-7.58;100.00
4346;BME280;2186;49.866;7.986;2022-12-18T06:33:58;101704.84;;;-7.70;100.00
4346;BME280;2186;49.866;7.986;2022-12-18T06:36:25;101720.78;;;-7.89;100.00
4346;BME280;2186;49.866;7.986;2022-12-18T06:38:52;101727.03;;;-7.85;100.00
4346;BME280;2186;49.866;7.986;2022-12-18T06:41:20;101711.78;;;-7.69;100.00
4346;BME280;2186;49.866;7.986;2022-12-18T06:43:47;101713.00;;;-7.64;100.00
4346;BME280;2186;49.866;7.986;2022-12-18T06:46:14;101717.41;;;-7.50;100.00
4346;BME280;2186;49.866;7.986;2022-12-18T06:48:41;101714.88;;;-7.99;100.00
4346;BME280;2186;49.866;7.986;2022-12-18T06:51:07;101713.28;;;-7.97;100.00
4346;BME280;2186;49.866;7.986;2022-12-18T06:53:34;101713.03;;;-8.14;100.00
4346;BME280;2186;49.866;7.986;2022-12-18T06:56:04;101719.03;;;-8.26;100.00
4346;BME280;2186;49.866;7.986;2022-12-18T06:58:36;101718.91;;;-8.41;100.00
4346;BME280;2186;49.866;7.986;2022-12-18T07:01:04;101719.72;;;-8.29;100.00
4346;BME280;2186;49.866;7.986;2022-12-18T07:03:31;101710.56;;;-8.12;100.00
4346;BME280;2186;49.866;7.986;2022-12-18T07:05:58;101713.75;;;-8.41;100.00
4346;BME280;2186;49.866;7.986;2022-12-18T07:08:24;101706.22;;;-8.38;100.00
4346;BME280;2186;49.866;7.986;2022-12-18T07:10:51;101716.03;;;-8.57;100.00
4346;BME280;2186;49.866;7.986;2022-12-18T07:13:22;101720.47;;;-8.43;100.00
4346;BME280;2186;49.866;7.986;2022-12-18T07:15:48;101717.41;;;-8.62;100.00
4346;BME280;2186;49.866;7.986;2022-12-18T07:18:14;101707.56;;;-8.80;100.00
4346;BME280;2186;49.866;7.986;2022-12-18T07:20:41;101701.41;;;-8.82;100.00
4346;BME280;2186;49.866;7.986;2022-12-18T07:23:07;101716.53;;;-9.10;100.00
4346;BME280;2186;49.866;7.986;2022-12-18T07:25:35;101728.31;;;-8.90;100.00
4346;BME280;2186;49.866;7.986;2022-12-18T07:28:02;101731.31;;;-9.42;100.00
4346;BME280;2186;49.866;7.986;2022-12-18T07:30:28;101730.19;;;-9.22;100.00
4346;BME280;2186;49.866;7.986;2022-12-18T07:32:55;101737.16;;;-9.10;100.00
4346;BME280;2186;49.866;7.986;2022-12-18T07:35:21;101730.88;;;-8.90;100.00
4346;BME280;2186;49.866;7.986;2022-12-18T07:37:50;101739.38;;;-8.91;100.00
4346;BME280;2186;49.866;7.986;2022-12-18T07:40:17;101739.94;;;-8.83;100.00
4346;BME280;2186;49.866;7.986;2022-12-18T07:42:43;101745.09;;;-9.30;100.00
4346;BME280;2186;49.866;7.986;2022-12-18T07:45:10;101753.91;;;-9.38;100.00
4346;BME280;2186;49.866;7.986;2022-12-18T07:47:37;101750.22;;;-9.07;100.00
4346;BME280;2186;49.866;7.986;2022-12-18T07:50:04;101750.69;;;-9.01;100.00
4346;BME280;2186;49.866;7.986;2022-12-18T07:52:31;101738.41;;;-8.20;100.00
4346;BME280;2186;49.866;7.986;2022-12-18T07:54:58;101732.28;;;-8.09;100.00
4346;BME280;2186;49.866;7.986;2022-12-18T07:57:24;101735.81;;;-8.08;100.00
4346;BME280;2186;49.866;7.986;2022-12-18T08:00:11;101733.31;;;-7.30;100.00
4346;BME280;2186;49.866;7.986;2022-12-18T08:02:38;101725.06;;;-7.89;100.00
4346;BME280;2186;49.866;7.986;2022-12-18T08:05:05;101739.13;;;-8.09;100.00
4346;BME280;2186;49.866;7.986;2022-12-18T08:07:32;101752.88;;;-7.97;100.00
4346;BME280;2186;49.866;7.986;2022-12-18T08:09:58;101746.03;;;-7.71;100.00
4346;BME280;2186;49.866;7.986;2022-12-18T08:12:25;101756.50;;;-7.82;100.00
4346;BME280;2186;49.866;7.986;2022-12-18T08:14:51;101749.69;;;-7.81;100.00
4346;BME280;2186;49.866;7.986;2022-12-18T08:17:19;101749.00;;;-8.03;100.00
4346;BME280;2186;49.866;7.986;2022-12-18T08:19:46;101751.59;;;-8.03;100.00
4346;BME280;2186;49.866;7.986;2022-12-18T08:22:12;101737.88;;;-8.27;100.00
4346;BME280;2186;49.866;7.986;2022-12-18T08:24:39;101725.31;;;-7.98;100.00
4346;BME280;2186;49.866;7.986;2022-12-18T08:27:05;101726.91;;;-7.62;100.00
4346;BME280;2186;49.866;7.986;2022-12-18T08:29:51;101729.06;;;-7.68;100.00
4346;BME280;2186;49.866;7.986;2022-12-18T08:32:18;101729.94;;;-7.81;100.00
4346;BME280;2186;49.866;7.986;2022-12-18T08:34:44;101738.72;;;-7.65;100.00
4346;BME280;2186;49.866;7.986;2022-12-18T08:37:11;101730.50;;;-7.60;100.00
4346;BME280;2186;49.866;7.986;2022-12-18T08:39:37;101720.38;;;-7.43;100.00
4346;BME280;2186;49.866;7.986;2022-12-18T08:42:03;101712.06;;;-7.53;100.00
4346;BME280;2186;49.866;7.986;2022-12-18T08:44:48;101712.63;;;-7.57;100.00
4346;BME280;2186;49.866;7.986;2022-12-18T08:47:14;101705.47;;;-7.61;100.00
4346;BME280;2186;49.866;7.986;2022-12-18T08:49:41;101707.63;;;-7.80;100.00
4346;BME280;2186;49.866;7.986;2022-12-18T08:52:07;101700.03;;;-7.52;100.00
4346;BME280;2186;49.866;7.986;2022-12-18T08:54:34;101692.19;;;-7.54;100.00
4346;BME280;2186;49.866;7.986;2022-12-18T08:57:00;101694.66;;;-7.42;100.00
4346;BME280;2186;49.866;7.986;2022-12-18T08:59:30;101697.84;;;-7.46;100.00
4346;BME280;2186;49.866;7.986;2022-12-18T09:01:56;101694.16;;;-7.63;100.00
4346;BME280;2186;49.866;7.986;2022-12-18T09:04:22;101697.84;;;-7.46;100.00
4346;BME280;2186;49.866;7.986;2022-12-18T09:06:49;101713.88;;;-7.38;100.00
4346;BME280;2186;49.866;7.986;2022-12-18T09:09:15;101711.38;;;-7.37;100.00
4346;BME280;2186;49.866;7.986;2022-12-18T09:11:42;101715.22;;;-7.43;100.00
4346;BME280;2186;49.866;7.986;2022-12-18T09:14:09;101702.41;;;-7.42;100.00
4346;BME280;2186;49.866;7.986;2022-12-18T09:16:36;101705.72;;;-7.31;100.00
4346;BME280;2186;49.866;7.986;2022-12-18T09:19:04;101716.03;;;-7.31;100.00
4346;BME280;2186;49.866;7.986;2022-12-18T09:21:33;101716.34;;;-7.40;100.00
4346;BME280;2186;49.866;7.986;2022-12-18T09:24:03;101727.84;;;-7.35;100.00
4346;BME280;2186;49.866;7.986;2022-12-18T09:26:34;101733.63;;;-7.39;100.00
4346;BME280;2186;49.866;7.986;2022-12-18T09:29:02;101729.75;;;-7.19;100.00
4346;BME280;2186;49.866;7.986;2022-12-18T09:31:28;101740.09;;;-7.06;100.00
4346;BME280;2186;49.866;7.986;2022-12-18T09:33:55;101735.22;;;-7.14;100.00
4346;BME280;2186;49.866;7.986;2022-12-18T09:36:22;101732.25;;;-6.81;100.00
4346;BME280;2186;49.866;7.986;2022-12-18T09:38:49;101739.47;;;-6.62;100.00
4346;BME280;2186;49.866;7.986;2022-12-18T09:47:11;101742.13;;;-6.47;100.00
4346;BME280;2186;49.866;7.986;2022-12-18T09:49:44;101749.59;;;-6.39;100.00
4346;BME280;2186;49.866;7.986;2022-12-18T09:54:48;101753.09;;;-6.10;100.00
4346;BME280;2186;49.866;7.986;2022-12-18T09:57:23;101737.50;;;-6.25;100.00
4346;BME280;2186;49.866;7.986;2022-12-18T09:59:58;101747.94;;;-6.23;100.00
4346;BME280;2186;49.866;7.986;2022-12-18T10:02:26;101744.16;;;-6.15;100.00
4346;BME280;2186;49.866;7.986;2022-12-18T10:05:10;101744.19;;;-6.29;100.00
4346;BME280;2186;49.866;7.986;2022-12-18T10:07:47;101737.88;;;-6.19;100.00
4346;BME280;2186;49.866;7.986;2022-12-18T10:10:29;101726.97;;;-6.28;100.00
4346;BME280;2186;49.866;7.986;2022-12-18T10:15:39;101720.66;;;-6.18;100.00
4346;BME280;2186;49.866;7.986;2022-12-18T10:18:31;101719.28;;;-6.54;100.00
4346;BME280;2186;49.866;7.986;2022-12-18T10:21:09;101711.19;;;-6.46;100.00
4346;BME280;2186;49.866;7.986;2022-12-18T10:26:17;101710.56;;;-6.70;100.00
4346;BME280;2186;49.866;7.986;2022-12-18T10:28:44;101706.59;;;-6.78;100.00
4346;BME280;2186;49.866;7.986;2022-12-18T10:31:20;101702.66;;;-6.58;100.00
4346;BME280;2186;49.866;7.986;2022-12-18T10:33:50;101702.63;;;-6.17;100.00
4346;BME280;2186;49.866;7.986;2022-12-18T10:36:16;101712.88;;;-6.46;100.00
4346;BME280;2186;49.866;7.986;2022-12-18T10:38:43;101723.06;;;-6.21;100.00
4346;BME280;2186;49.866;7.986;2022-12-18T10:43:47;101719.22;;;-6.00;100.00
4346;BME280;2186;49.866;7.986;2022-12-18T10:46:16;101713.06;;;-6.30;100.00
4346;BME280;2186;49.866;7.986;2022-12-18T10:51:39;101730.75;;;-6.23;100.00
4346;BME280;2186;49.866;7.986;2022-12-18T10:54:14;101732.38;;;-6.10;100.00
4346;BME280;2186;49.866;7.986;2022-12-18T10:56:43;101728.31;;;-5.92;100.00
4346;BME280;2186;49.866;7.986;2022-12-18T10:59:12;101720.94;;;-5.56;100.00
4346;BME280;2186;49.866;7.986;2022-12-18T11:01:56;101719.81;;;-5.89;100.00
4346;BME280;2186;49.866;7.986;2022-12-18T11:09:48;101718.91;;;-5.47;100.00
4346;BME280;2186;49.866;7.986;2022-12-18T11:14:46;101710.63;;;-4.96;100.00
4346;BME280;2186;49.866;7.986;2022-12-18T11:17:31;101706.19;;;-4.36;100.00
4346;BME280;2186;49.866;7.986;2022-12-18T11:20:00;101706.53;;;-4.92;100.00
4346;BME280;2186;49.866;7.986;2022-12-18T11:22:30;101707.63;;;-4.72;100.00
4346;BME280;2186;49.866;7.986;2022-12-18T11:25:00;101697.59;;;-4.97;100.00
4346;BME280;2186;49.866;7.986;2022-12-18T11:27:52;101695.44;;;-4.90;100.00
4346;BME280;2186;49.866;7.986;2022-12-18T11:30:24;101710.16;;;-5.20;100.00
4346;BME280;2186;49.866;7.986;2022-12-18T11:33:11;101715.94;;;-5.53;100.00
4346;BME280;2186;49.866;7.986;2022-12-18T11:35:48;101706.63;;;-5.64;100.00
4346;BME280;2186;49.866;7.986;2022-12-18T11:38:29;101699.25;;;-5.58;100.00
4346;BME280;2186;49.866;7.986;2022-12-18T11:41:19;101685.31;;;-5.46;100.00
4346;BME280;2186;49.866;7.986;2022-12-18T11:43:53;101686.47;;;-5.26;100.00
4346;BME280;2186;49.866;7.986;2022-12-18T11:46:38;101682.25;;;-5.24;100.00
4346;BME280;2186;49.866;7.986;2022-12-18T11:54:37;101685.47;;;-5.13;100.00
4346;BME280;2186;49.866;7.986;2022-12-18T11:57:30;101677.22;;;-4.91;100.00
4346;BME280;2186;49.866;7.986;2022-12-18T12:05:29;101674.50;;;-4.78;100.00
4346;BME280;2186;49.866;7.986;2022-12-18T12:08:11;101651.22;;;-4.77;100.00
4346;BME280;2186;49.866;7.986;2022-12-18T12:13:43;101636.59;;;-4.60;100.00
4346;BME280;2186;49.866;7.986;2022-12-18T12:22:04;101628.75;;;-4.92;100.00
4346;BME280;2186;49.866;7.986;2022-12-18T12:24:51;101628.97;;;-4.57;100.00
4346;BME280;2186;49.866;7.986;2022-12-18T12:27:48;101613.69;;;-4.83;100.00
4346;BME280;2186;49.866;7.986;2022-12-18T12:40:49;101619.69;;;-4.68;100.00
4346;BME280;2186;49.866;7.986;2022-12-18T12:43:35;101617.31;;;-4.65;100.00
4346;BME280;2186;49.866;7.986;2022-12-18T12:46:13;101615.91;;;-4.58;100.00
4346;BME280;2186;49.866;7.986;2022-12-18T12:48:46;101611.22;;;-4.49;100.00
4346;BME280;2186;49.866;7.986;2022-12-18T12:51:17;101607.97;;;-4.45;100.00
4346;BME280;2186;49.866;7.986;2022-12-18T12:53:46;101605.59;;;-4.40;100.00
4346;BME280;2186;49.866;7.986;2022-12-18T12:56:14;101611.78;;;-4.38;100.00
4346;BME280;2186;49.866;7.986;2022-12-18T13:01:35;101596.47;;;-4.34;100.00
4346;BME280;2186;49.866;7.986;2022-12-18T13:04:21;101593.94;;;-4.49;100.00
4346;BME280;2186;49.866;7.986;2022-12-18T13:06:59;101591.34;;;-4.49;100.00
4346;BME280;2186;49.866;7.986;2022-12-18T13:09:34;101591.50;;;-4.45;100.00
4346;BME280;2186;49.866;7.986;2022-12-18T13:12:21;101586.78;;;-4.53;100.00
4346;BME280;2186;49.866;7.986;2022-12-18T13:15:21;101574.41;;;-4.42;100.00
4346;BME280;2186;49.866;7.986;2022-12-18T13:17:49;101573.34;;;-4.45;100.00
4346;BME280;2186;49.866;7.986;2022-12-18T13:20:33;101567.69;;;-4.38;100.00
4346;BME280;2186;49.866;7.986;2022-12-18T13:23:01;101571.88;;;-4.40;100.00
4346;BME280;2186;49.866;7.986;2022-12-18T13:25:33;101578.06;;;-4.38;100.00
4346;BME280;2186;49.866;7.986;2022-12-18T13:28:06;101567.91;;;-4.34;100.00
4346;BME280;2186;49.866;7.986;2022-12-18T13:36:00;101565.47;;;-4.31;100.00
4346;BME280;2186;49.866;7.986;2022-12-18T13:38:37;101574.47;;;-4.24;100.00
4346;BME280;2186;49.866;7.986;2022-12-18T13:43:39;101566.47;;;-3.95;100.00
4346;BME280;2186;49.866;7.986;2022-12-18T13:46:29;101566.25;;;-4.15;100.00
4346;BME280;2186;49.866;7.986;2022-12-18T13:49:03;101562.22;;;-4.10;100.00
4346;BME280;2186;49.866;7.986;2022-12-18T13:51:33;101567.97;;;-4.16;100.00
4346;BME280;2186;49.866;7.986;2022-12-18T13:56:44;101570.66;;;-4.31;100.00
4346;BME280;2186;49.866;7.986;2022-12-18T13:59:20;101556.53;;;-4.20;100.00
4346;BME280;2186;49.866;7.986;2022-12-18T14:04:28;101556.13;;;-4.27;100.00
4346;BME280;2186;49.866;7.986;2022-12-18T14:06:57;101562.78;;;-4.16;100.00
4346;BME280;2186;49.866;7.986;2022-12-18T14:09:36;101563.16;;;-4.08;100.00
4346;BME280;2186;49.866;7.986;2022-12-18T14:12:06;101565.44;;;-4.14;100.00
4346;BME280;2186;49.866;7.986;2022-12-18T14:14:52;101569.19;;;-4.26;100.00
4346;BME280;2186;49.866;7.986;2022-12-18T14:17:22;101567.84;;;-4.35;100.00
4346;BME280;2186;49.866;7.986;2022-12-18T14:19:50;101571.00;;;-4.25;100.00
4346;BME280;2186;49.866;7.986;2022-12-18T14:22:23;101568.47;;;-4.23;100.00
4346;BME280;2186;49.866;7.986;2022-12-18T14:27:44;101554.69;;;-4.22;100.00
4346;BME280;2186;49.866;7.986;2022-12-18T14:33:24;101553.88;;;-4.21;100.00
4346;BME280;2186;49.866;7.986;2022-12-18T14:35:56;101563.25;;;-4.07;100.00
4346;BME280;2186;49.866;7.986;2022-12-18T14:41:12;101553.75;;;-4.06;100.00
4346;BME280;2186;49.866;7.986;2022-12-18T14:43:42;101557.50;;;-4.18;100.00
4346;BME280;2186;49.866;7.986;2022-12-18T14:48:56;101559.16;;;-4.36;100.00
4346;BME280;2186;49.866;7.986;2022-12-18T14:51:33;101547.63;;;-4.25;100.00
4346;BME280;2186;49.866;7.986;2022-12-18T14:54:02;101555.66;;;-4.20;100.00
4346;BME280;2186;49.866;7.986;2022-12-18T14:56:32;101543.94;;;-4.12;100.00